Bookmark and Share
Track history (hours):
 

Lotheni

Last reported at 2014-Apr-23 11:14 UTC. Time now 2014-Apr-23 15:23 UTC.
Position S 29°52' E 031°02'.

Type: Tug. MMSI: 601135800.

NotesDate/timePositionNaut miles runAvg speedWind from/ knotsBaromVisibWave heightAir tempDewpointWater temp
2014-Apr-23 11:14S 29°52' E 031°02'2 1.9
2014-Apr-23 10:14S 29°53' E 031°00'2 3.4
2014-Apr-23 09:33S 29°53' E 031°03'0 0.3
2014-Apr-23 08:10S 29°52' E 031°03'0 0.5
2014-Apr-23 07:31S 29°52' E 031°03'2 1.2
2014-Apr-23 06:15S 29°53' E 031°01'1 1.6
2014-Apr-23 05:30S 29°53' E 031°02'1 0.4
2014-Apr-23 03:22S 29°52' E 031°02'1 1.1
2014-Apr-23 02:28S 29°53' E 031°01'1 0.2
2014-Apr-22 20:15S 29°52' E 031°02'1 0.4
2014-Apr-22 18:11S 29°53' E 031°02'1 0.9
2014-Apr-22 17:27S 29°53' E 031°02'1 0.4
2014-Apr-22 14:12S 29°52' E 031°02'1 0.9
2014-Apr-22 13:28S 29°52' E 031°02'1 0.2
2014-Apr-22 09:27S 29°53' E 031°03'0 0.3
2014-Apr-22 08:20S 29°52' E 031°03'0 0.3
2014-Apr-22 07:33S 29°53' E 031°03'0 0.2
2014-Apr-22 06:29S 29°52' E 031°02'0 0.4
2014-Apr-22 05:28S 29°53' E 031°03'1 0.8
2014-Apr-22 04:33S 29°52' E 031°02'1 0.2
2014-Apr-22 00:31S 29°53' E 031°03'1 0.1
2014-Apr-21 18:32S 29°53' E 031°02'1 0.6
2014-Apr-21 17:32S 29°52' E 031°02'1 0.2
2014-Apr-21 13:30S 29°52' E 031°02'2 0.6
2014-Apr-21 10:20S 29°53' E 031°00'2 0.6
2014-Apr-21 07:32S 29°52' E 031°02'1 1.5
2014-Apr-21 06:33S 29°52' E 031°03'1 0.5
2014-Apr-21 03:29S 29°52' E 031°02'0 0.3
2014-Apr-21 02:17S 29°52' E 031°02'0 0.4
2014-Apr-21 01:33S 29°52' E 031°02'1 0.2
2014-Apr-20 22:16S 29°52' E 031°02'1 0.3
2014-Apr-20 20:31S 29°52' E 031°02'1 0.7
2014-Apr-20 19:26S 29°53' E 031°03'0 0.1
2014-Apr-20 18:33S 29°53' E 031°03'1 0.9
2014-Apr-20 17:32S 29°52' E 031°02'1 0.2
2014-Apr-20 14:15S 29°52' E 031°02'1 0.9
2014-Apr-20 13:22S 29°53' E 031°02'0 0.5
2014-Apr-20 12:32S 29°53' E 031°02'1 0.3
2014-Apr-20 08:28S 29°52' E 031°02'0 0.0
2014-Apr-20 07:10S 29°52' E 031°02'1 1.7
2014-Apr-20 06:32S 29°53' E 031°02'1 0.6
2014-Apr-20 05:14S 29°52' E 031°02'1 0.4
2014-Apr-20 03:14S 29°52' E 031°02'0 0.6
2014-Apr-20 02:33S 29°52' E 031°02'1 0.3
2014-Apr-20 00:16S 29°52' E 031°02'1 0.9
2014-Apr-19 23:06S 29°52' E 031°01'1 0.6
2014-Apr-19 21:28S 29°52' E 031°02'0 0.0
2014-Apr-19 20:28S 29°52' E 031°02'0 0.0
2014-Apr-19 18:28S 29°52' E 031°02'1 1.2
2014-Apr-19 17:20S 29°52' E 031°03'1 0.3
2014-Apr-19 13:06S 29°52' E 031°02'1 2.1
2014-Apr-19 12:32S 29°53' E 031°03'0 0.3
2014-Apr-19 11:33S 29°53' E 031°03'1 0.7
2014-Apr-19 10:32S 29°52' E 031°02'1 0.4
2014-Apr-19 08:25S 29°52' E 031°02'0 0.2
2014-Apr-19 06:04S 29°52' E 031°02'0 0.6
2014-Apr-19 05:29S 29°53' E 031°02'1 0.2
2014-Apr-19 02:03S 29°52' E 031°02'1 1.0
2014-Apr-19 00:33S 29°53' E 031°03'1 0.7
2014-Apr-18 23:33S 29°52' E 031°03'1 1.4
2014-Apr-18 22:33S 29°52' E 031°02'0 0.0
2014-Apr-18 21:03S 29°52' E 031°02'0 0.0
2014-Apr-18 18:17S 29°52' E 031°02'1 1.2
2014-Apr-18 17:30S 29°53' E 031°01'1 0.3
2014-Apr-18 13:32S 29°53' E 031°03'1 1.2
2014-Apr-18 12:26S 29°53' E 031°01'1 1.1
2014-Apr-18 11:33S 29°52' E 031°02'0 0.5
2014-Apr-18 10:32S 29°52' E 031°02'1 0.6
2014-Apr-18 09:20S 29°52' E 031°02'0 0.0
2014-Apr-18 08:20S 29°52' E 031°02'0 0.0
2014-Apr-18 07:27S 29°52' E 031°02'0 0.0
2014-Apr-18 06:33S 29°52' E 031°02'1 0.2
2014-Apr-18 02:25S 29°52' E 031°02'1 0.3
2014-Apr-18 00:20S 29°52' E 031°02'0 0.0
2014-Apr-17 22:14S 29°52' E 031°02'0 0.4
2014-Apr-17 21:30S 29°52' E 031°02'1 0.8
2014-Apr-17 20:32S 29°53' E 031°02'1 0.4
2014-Apr-17 19:04S 29°53' E 031°01'0 0.7
2014-Apr-17 18:25S 29°53' E 031°01'1 0.3
2014-Apr-17 14:11S 29°52' E 031°02'0 0.0
2014-Apr-17 13:17S 29°52' E 031°02'0 0.0
2014-Apr-17 12:11S 29°52' E 031°02'2 1.0
2014-Apr-17 10:30S 29°53' E 031°00'0 0.3
2014-Apr-17 09:29S 29°53' E 031°00'1 0.6
2014-Apr-17 08:30S 29°53' E 031°01'1 0.2
2014-Apr-17 02:08S 29°52' E 031°02'0 0.0
2014-Apr-17 01:17S 29°52' E 031°02'1 0.4
2014-Apr-16 22:22S 29°52' E 031°03'0 0.0
2014-Apr-16 21:32S 29°52' E 031°03'1 1.3
2014-Apr-16 20:33S 29°53' E 031°01'1 0.3
2014-Apr-16 17:11S 29°52' E 031°02'0 0.0
2014-Apr-16 13:20S 29°52' E 031°02'0 0.0
2014-Apr-16 12:08S 29°52' E 031°02'0 0.0
2014-Apr-16 11:20S 29°52' E 031°02'0 0.0
2014-Apr-16 10:26S 29°52' E 031°02'1 0.8
2014-Apr-16 09:16S 29°53' E 031°02'0 0.6
2014-Apr-16 08:31S 29°53' E 031°03'1 0.4
2014-Apr-16 05:29S 29°52' E 031°02'1 0.7
2014-Apr-16 04:32S 29°52' E 031°02'1 0.3
2014-Apr-16 02:16S 29°52' E 031°02'0 0.0
2014-Apr-16 00:28S 29°52' E 031°02'1 0.7
2014-Apr-15 23:30S 29°52' E 031°02'1 0.3
2014-Apr-15 21:29S 29°52' E 031°02'1 1.1
2014-Apr-15 20:31S 29°52' E 031°01'1 1.1
2014-Apr-15 19:32S 29°52' E 031°02'0 0.1
2014-Apr-15 17:31S 29°52' E 031°02'1 0.0
2014-Apr-14 23:33S 29°52' E 031°02'0 0.2
2014-Apr-14 21:30S 29°52' E 031°02'1 0.4
2014-Apr-14 19:31S 29°53' E 031°01'1 0.7
2014-Apr-14 17:31S 29°53' E 031°03'1 0.2
2014-Apr-14 11:33S 29°52' E 031°02'0 0.0
2014-Apr-14 10:33S 29°52' E 031°02'1 1.1
2014-Apr-14 09:33S 29°53' E 031°01'1 0.4
2014-Apr-14 06:32S 29°52' E 031°02'0 0.1
2014-Apr-13 22:33S 29°52' E 031°02'1 0.1
2014-Apr-13 14:33S 29°53' E 031°02'1 0.9
2014-Apr-13 13:33S 29°52' E 031°02'0 0.2
2014-Apr-13 11:32S 29°52' E 031°02'  

Dump ship's entire track history

sailing weather and tide predictions

Lotheni — ZR8530 — position and weather